Time;durP1;ratioP1;P1;durP2;ratioP2;P2;SDS_P1;SDS_P2;PMS_P1;PMS_P2;Temp;Humidity;BMP_temperature;BMP_pressure;BME280_temperature;BME280_humidity;BME280_pressure;Samples;Min_cycle;Max_cycle;Signal;HPM_P1;HPM_P2
2022/08/28 00:00:26;;;;;;;;;;;;;;;19.57;80.78;100191.62;1642764;86;20173;-71
2022/08/28 00:02:54;;;;;;;;;;;;;;;19.55;80.86;100191.88;1643366;86;20195;-71
2022/08/28 00:05:23;;;;;;;;;;;;;;;19.53;81.00;100187.77;1654358;86;20161;-71
2022/08/28 00:07:49;;;;;;;;;;;;;;;19.53;81.13;100193.18;1645808;86;20218;-71
2022/08/28 00:10:16;;;;;;;;;;;;;;;19.52;81.24;100188.81;1656667;86;20172;-71
2022/08/28 00:12:42;;;;;;;;;;;;;;;19.50;81.34;100191.73;1694064;84;20187;-72
2022/08/28 00:15:10;;;;;;;;;;;;;;;19.50;81.43;100186.85;1687593;84;21864;-71
2022/08/28 00:17:36;;;;;;;;;;;;;;;19.50;81.52;100186.85;1690311;84;20169;-71
2022/08/28 00:20:03;;;;;;;;;;;;;;;19.48;81.60;100176.28;1656581;86;20489;-71
2022/08/28 00:22:30;;;;;;;;;;;;;;;19.47;81.67;100180.04;1644965;87;20162;-71
2022/08/28 00:24:55;;;;;;;;;;;;;;;19.45;81.77;100171.34;1644254;87;20194;-71
2022/08/28 00:30:07;;;;;;;;;;;;;;;19.42;81.99;100173.97;1654680;86;20500;-71
2022/08/28 00:32:34;;;;;;;;;;;;;;;19.42;82.12;100173.17;1639453;86;20191;-72
2022/08/28 00:35:01;;;;;;;;;;;;;;;19.40;82.23;100178.77;1639447;86;20156;-71
2022/08/28 00:37:28;;;;;;;;;;;;;;;19.40;82.33;100178.77;1639264;87;20200;-71
2022/08/28 00:39:53;;;;;;;;;;;;;;;19.41;82.41;100174.22;1641579;87;21180;-72
2022/08/28 00:42:19;;;;;;;;;;;;;;;19.40;82.48;100170.66;1642036;86;20210;-71
2022/08/28 00:44:45;;;;;;;;;;;;;;;19.38;82.55;100163.31;1642238;87;20472;-71
2022/08/28 00:47:11;;;;;;;;;;;;;;;19.37;82.62;100163.01;1641987;87;20250;-71
2022/08/28 00:49:46;;;;;;;;;;;;;;;19.35;82.66;100162.40;1642346;87;20178;-71
2022/08/28 00:52:14;;;;;;;;;;;;;;;19.33;82.71;100156.41;1642160;87;21809;-71
2022/08/28 00:54:47;;;;;;;;;;;;;;;19.32;82.80;100158.81;1640527;87;20131;-71
2022/08/28 00:57:17;;;;;;;;;;;;;;;19.31;82.86;100159.06;1641481;86;20452;-71
2022/08/28 00:59:43;;;;;;;;;;;;;;;19.29;82.95;100152.52;1642123;86;20169;-71
2022/08/28 01:02:08;;;;;;;;;;;;;;;19.30;83.05;100156.88;1641785;87;20186;-71
2022/08/28 01:04:34;;;;;;;;;;;;;;;19.28;83.10;100153.57;1641175;87;21200;-71
2022/08/28 01:07:04;;;;;;;;;;;;;;;19.26;83.16;100155.70;1642075;87;20217;-72
2022/08/28 01:09:30;;;;;;;;;;;;;;;19.27;83.22;100153.82;1644388;86;20180;-72
2022/08/28 01:12:05;;;;;;;;;;;;;;;19.24;83.27;100148.36;1646207;86;20186;-71
2022/08/28 01:14:32;;;;;;;;;;;;;;;19.26;83.33;100154.34;1645964;85;36832;-71
2022/08/28 01:16:58;;;;;;;;;;;;;;;19.25;83.39;100149.98;1645805;86;21889;-71
2022/08/28 01:19:33;;;;;;;;;;;;;;;19.25;83.46;100158.09;1645839;86;20201;-71
2022/08/28 01:22:15;;;;;;;;;;;;;;;19.24;83.52;100156.99;1622687;87;20501;-71
2022/08/28 01:24:41;;;;;;;;;;;;;;;19.22;83.62;100161.27;1645543;86;20445;-71
2022/08/28 01:27:07;;;;;;;;;;;;;;;19.23;83.69;100172.91;1646093;86;20866;-71
2022/08/28 01:29:32;;;;;;;;;;;;;;;19.22;83.75;100166.67;1646076;86;21180;-71
2022/08/28 01:31:58;;;;;;;;;;;;;;;19.23;83.80;100164.27;1645428;86;20205;-71
2022/08/28 01:34:24;;;;;;;;;;;;;;;19.23;83.86;100165.63;1645883;86;20228;-71
2022/08/28 01:36:50;;;;;;;;;;;;;;;19.24;83.94;100165.93;1646043;86;20711;-72
2022/08/28 01:39:21;;;;;;;;;;;;;;;19.24;84.01;100168.64;1646079;86;20233;-71
2022/08/28 01:41:48;;;;;;;;;;;;;;;19.21;84.04;100177.73;1646053;86;21153;-71
2022/08/28 01:44:14;;;;;;;;;;;;;;;19.20;84.10;100178.27;1646002;86;20195;-71
2022/08/28 01:46:41;;;;;;;;;;;;;;;19.18;84.16;100180.88;1645635;85;20180;-71
2022/08/28 01:49:10;;;;;;;;;;;;;;;19.18;84.22;100180.88;1646037;85;20191;-71
2022/08/28 01:51:35;;;;;;;;;;;;;;;19.19;84.29;100182.02;1658388;85;20198;-71
2022/08/28 01:54:01;;;;;;;;;;;;;;;19.21;84.36;100185.30;1648571;85;21220;-71
2022/08/28 01:56:27;;;;;;;;;;;;;;;19.21;84.41;100177.73;1654674;85;20164;-71
2022/08/28 01:58:52;;;;;;;;;;;;;;;19.22;84.48;100178.02;1645864;86;20209;-71
2022/08/28 02:01:19;;;;;;;;;;;;;;;19.22;84.56;100177.48;1646115;86;20182;-71
2022/08/28 02:03:45;;;;;;;;;;;;;;;19.23;84.64;100180.50;1646000;86;20179;-71
2022/08/28 02:06:11;;;;;;;;;;;;;;;19.22;84.70;100177.48;1646126;86;22176;-72
2022/08/28 02:08:37;;;;;;;;;;;;;;;19.23;84.82;100175.09;1622790;87;20188;-71
2022/08/28 02:11:05;;;;;;;;;;;;;;;19.23;84.89;100164.27;1642625;86;20237;-72
2022/08/28 02:13:31;;;;;;;;;;;;;;;19.25;84.95;100164.85;1644305;86;20554;-71
2022/08/28 02:15:57;;;;;;;;;;;;;;;19.27;85.05;100173.58;1643220;86;20191;-72
2022/08/28 02:18:23;;;;;;;;;;;;;;;19.30;85.11;100173.11;1642957;86;21223;-71
2022/08/28 02:20:49;;;;;;;;;;;;;;;19.33;85.20;100169.11;1642928;86;20191;-71
2022/08/28 02:23:15;;;;;;;;;;;;;;;19.34;85.25;100171.59;1643301;86;20481;-71
2022/08/28 02:25:41;;;;;;;;;;;;;;;19.37;85.30;100169.77;1643023;86;20213;-71
2022/08/28 02:28:07;;;;;;;;;;;;;;;19.38;85.32;100168.72;1643144;86;20238;-71
2022/08/28 02:30:34;;;;;;;;;;;;;;;19.40;85.40;100162.54;1643368;86;21188;-71
2022/08/28 02:33:00;;;;;;;;;;;;;;;19.40;85.51;100158.48;1638508;86;20161;-71
2022/08/28 02:35:25;;;;;;;;;;;;;;;19.41;85.56;100161.52;1654936;86;20324;-71
2022/08/28 02:37:52;;;;;;;;;;;;;;;19.42;85.62;100152.33;1643468;86;20170;-72
2022/08/28 02:40:19;;;;;;;;;;;;;;;19.44;85.66;100154.81;1643369;86;20184;-71
2022/08/28 02:42:45;;;;;;;;;;;;;;;19.44;85.74;100158.34;1657079;86;21193;-71
2022/08/28 02:45:12;;;;;;;;;;;;;;;19.49;85.82;100162.23;1650836;86;20362;-72
2022/08/28 02:47:38;;;;;;;;;;;;;;;19.50;85.84;100165.21;1643245;87;20463;-71
2022/08/28 02:50:06;;;;;;;;;;;;;;;19.50;85.89;100163.86;1643249;86;20176;-71
2022/08/28 02:52:34;;;;;;;;;;;;;;;19.51;85.91;100165.52;1643277;86;20163;-71
2022/08/28 02:54:59;;;;;;;;;;;;;;;19.53;85.94;100170.19;1642936;86;21238;-71
2022/08/28 02:57:26;;;;;;;;;;;;;;;19.54;85.97;100169.10;1643208;86;20759;-71
2022/08/28 02:59:52;;;;;;;;;;;;;;;19.53;85.98;100178.30;1643267;86;20179;-71
2022/08/28 03:02:17;;;;;;;;;;;;;;;19.53;86.00;100174.24;1646375;86;20534;-71
2022/08/28 03:04:43;;;;;;;;;;;;;;;19.52;86.05;100172.59;1643443;86;20174;-72
2022/08/28 03:07:12;;;;;;;;;;;;;;;19.53;86.09;100170.19;1661803;86;21138;-72
2022/08/28 03:09:37;;;;;;;;;;;;;;;19.53;86.11;100174.24;1643015;86;20474;-72
2022/08/28 03:12:03;;;;;;;;;;;;;;;19.52;86.12;100172.59;1643125;86;20217;-71
2022/08/28 03:14:29;;;;;;;;;;;;;;;19.50;86.15;100170.09;1643014;86;20196;-71
2022/08/28 03:16:55;;;;;;;;;;;;;;;19.50;86.17;100168.75;1643306;86;20202;-71
2022/08/28 03:19:23;;;;;;;;;;;;;;;19.48;86.19;100172.75;1642896;86;21996;-71
2022/08/28 03:21:49;;;;;;;;;;;;;;;19.47;86.24;100175.16;1648366;86;20239;-71
2022/08/28 03:24:14;;;;;;;;;;;;;;;19.44;86.26;100171.05;1647921;86;20211;-72
2022/08/28 03:26:40;;;;;;;;;;;;;;;19.44;86.27;100170.52;1643012;86;20242;-71
2022/08/28 03:29:06;;;;;;;;;;;;;;;19.43;86.27;100173.44;1653593;86;20780;-71
2022/08/28 03:31:34;;;;;;;;;;;;;;;19.43;86.31;100172.92;1644827;86;21144;-71
2022/08/28 03:34:00;;;;;;;;;;;;;;;19.43;86.36;100176.98;1651883;86;20151;-71
2022/08/28 03:36:27;;;;;;;;;;;;;;;19.42;86.37;100178.02;1643200;86;20199;-71
2022/08/28 03:38:54;;;;;;;;;;;;;;;19.41;86.37;100185.86;1643157;86;20182;-71
2022/08/28 03:41:21;;;;;;;;;;;;;;;19.40;86.42;100186.05;1643248;86;20463;-72
2022/08/28 03:43:46;;;;;;;;;;;;;;;19.41;86.46;100190.45;1641264;86;21945;-71
2022/08/28 03:46:15;;;;;;;;;;;;;;;19.40;86.48;100184.17;1643174;86;20229;-71
2022/08/28 03:48:40;;;;;;;;;;;;;;;19.39;86.50;100189.28;1643127;86;20176;-71
2022/08/28 03:51:07;;;;;;;;;;;;;;;19.40;86.53;100191.46;1643284;86;20475;-71
2022/08/28 03:53:33;;;;;;;;;;;;;;;19.39;86.52;100192.50;1643250;86;20188;-71
2022/08/28 03:55:59;;;;;;;;;;;;;;;19.37;86.58;100192.76;1635524;87;21176;-71
2022/08/28 03:58:25;;;;;;;;;;;;;;;19.37;86.58;100192.76;1643310;86;20214;-71
2022/08/28 04:00:51;;;;;;;;;;;;;;;19.36;86.59;100191.09;1643075;86;20226;-72
2022/08/28 04:03:17;;;;;;;;;;;;;;;19.37;86.61;100190.05;1643273;86;20186;-71
2022/08/28 04:05:43;;;;;;;;;;;;;;;19.36;86.61;100191.09;1643237;86;20238;-71
2022/08/28 04:08:12;;;;;;;;;;;;;;;19.37;86.63;100187.34;1643276;86;21178;-72
2022/08/28 04:10:38;;;;;;;;;;;;;;;19.37;86.61;100187.34;1622691;86;20164;-71
2022/08/28 04:13:04;;;;;;;;;;;;;;;19.37;86.61;100193.28;1643364;86;20269;-72
2022/08/28 04:15:30;;;;;;;;;;;;;;;19.36;86.62;100191.09;1650477;86;20176;-71
2022/08/28 04:17:56;;;;;;;;;;;;;;;19.33;86.62;100195.63;1644698;86;20177;-72
2022/08/28 04:20:22;;;;;;;;;;;;;;;19.34;86.62;100200.51;1653596;86;20952;-71
2022/08/28 04:22:48;;;;;;;;;;;;;;;19.36;86.64;100198.38;1655180;86;20500;-71
2022/08/28 04:25:14;;;;;;;;;;;;;;;19.38;86.63;100202.53;1647832;86;20194;-71
2022/08/28 04:27:41;;;;;;;;;;;;;;;19.39;86.60;100198.75;1643299;86;20230;-71
2022/08/28 04:30:07;;;;;;;;;;;;;;;19.41;86.58;100204.80;1643450;86;20514;-71
2022/08/28 04:32:34;;;;;;;;;;;;;;;19.41;86.58;100203.97;1652034;86;20912;-71
2022/08/28 04:35:00;;;;;;;;;;;;;;;19.43;86.57;100208.61;1642673;86;20534;-71
2022/08/28 04:37:26;;;;;;;;;;;;;;;19.43;86.54;100200.48;1643053;86;20475;-71
2022/08/28 04:39:52;;;;;;;;;;;;;;;19.43;86.55;100204.02;1643300;86;20186;-72
2022/08/28 04:42:18;;;;;;;;;;;;;;;19.42;86.53;100206.42;1643722;86;20298;-72
2022/08/28 04:44:44;;;;;;;;;;;;;;;19.42;86.49;100213.73;1654918;86;21174;-71
2022/08/28 04:47:09;;;;;;;;;;;;;;;19.41;86.50;100214.27;1643204;86;20266;-72
2022/08/28 04:49:35;;;;;;;;;;;;;;;19.44;86.51;100220.56;1643299;86;20229;-71
2022/08/28 04:52:02;;;;;;;;;;;;;;;19.43;86.47;100218.90;1643342;86;20483;-72
2022/08/28 04:54:28;;;;;;;;;;;;;;;19.46;86.48;100208.69;1650960;86;20161;-71
2022/08/28 04:56:54;;;;;;;;;;;;;;;19.48;86.46;100209.27;1651908;86;21333;-72
2022/08/28 04:59:20;;;;;;;;;;;;;;;19.49;86.45;100209.05;1643248;86;20201;-71
2022/08/28 05:01:46;;;;;;;;;;;;;;;19.49;86.42;100206.34;1643144;86;20786;-71
2022/08/28 05:04:12;;;;;;;;;;;;;;;19.50;86.43;100208.50;1647704;86;20726;-72
2022/08/28 05:06:45;;;;;;;;;;;;;;;19.50;86.39;100209.84;1643182;86;20190;-71
2022/08/28 05:09:06;;;;;;;;;;;;;;;19.51;86.37;100206.09;1650592;86;21929;-71
2022/08/28 05:11:31;;;;;;;;;;;;;;;19.52;86.36;100210.45;1622480;87;20249;-72
2022/08/28 05:13:57;;;;;;;;;;;;;;;19.52;86.39;100207.75;1627314;87;20214;-71
2022/08/28 05:16:23;;;;;;;;;;;;;;;19.52;86.35;100209.94;1619105;87;20610;-71
2022/08/28 05:18:49;;;;;;;;;;;;;;;19.52;86.36;100209.11;1619334;87;20183;-71
2022/08/28 05:21:21;;;;;;;;;;;;;;;19.51;86.36;100208.80;1619291;87;21322;-71
2022/08/28 05:23:48;;;;;;;;;;;;;;;19.50;86.36;100213.38;1619201;87;20356;-71
2022/08/28 05:26:15;;;;;;;;;;;;;;;19.52;86.37;100213.98;1623265;87;20510;-72
2022/08/28 05:28:41;;;;;;;;;;;;;;;19.53;86.37;100218.33;1619396;87;20492;-71
2022/08/28 05:31:15;;;;;;;;;;;;;;;19.54;86.33;100217.28;1619191;87;20233;-71
2022/08/28 05:33:42;;;;;;;;;;;;;;;19.59;86.37;100219.30;1619355;87;21290;-71
2022/08/28 05:36:08;;;;;;;;;;;;;;;19.57;86.33;100218.69;1625866;87;20161;-71
2022/08/28 05:38:34;;;;;;;;;;;;;;;19.56;86.32;100218.41;1623740;87;20402;-71
2022/08/28 05:41:00;;;;;;;;;;;;;;;19.57;86.34;100217.33;1619341;87;20657;-71
2022/08/28 05:43:26;;;;;;;;;;;;;;;19.59;86.31;100223.34;1634225;87;20197;-71
2022/08/28 05:45:58;;;;;;;;;;;;;;;19.60;86.33;100227.72;1619333;87;21586;-71
2022/08/28 05:48:28;;;;;;;;;;;;;;;19.62;86.33;100228.29;1618885;87;20147;-72
2022/08/28 05:50:56;;;;;;;;;;;;;;;19.64;86.32;100228.34;1619044;87;20178;-71
2022/08/28 05:53:22;;;;;;;;;;;;;;;19.65;86.32;100221.06;1619099;87;20148;-71
2022/08/28 05:55:48;;;;;;;;;;;;;;;19.68;86.34;100217.88;1622392;87;20325;-71
2022/08/28 05:58:30;;;;;;;;;;;;;;;19.71;86.33;100220.11;1621140;87;21415;-71
2022/08/28 06:01:13;;;;;;;;;;;;;;;19.73;86.33;100228.31;1618041;87;20175;-71
2022/08/28 06:03:40;;;;;;;;;;;;;;;19.79;86.30;100234.66;1637653;87;20416;-71
2022/08/28 06:06:06;;;;;;;;;;;;;;;19.84;86.30;100236.16;1617748;87;20613;-71
2022/08/28 06:08:32;;;;;;;;;;;;;;;19.86;86.26;100236.73;1618522;87;20170;-72
2022/08/28 06:11:00;;;;;;;;;;;;;;;19.88;86.27;100238.13;1638676;86;21390;-72
2022/08/28 06:13:26;;;;;;;;;;;;;;;19.90;86.25;100238.74;1642215;86;20174;-72
2022/08/28 06:15:53;;;;;;;;;;;;;;;19.91;86.24;100236.86;1642035;86;20184;-71
2022/08/28 06:18:18;;;;;;;;;;;;;;;19.95;86.22;100236.66;1644520;86;20230;-72
2022/08/28 06:20:45;;;;;;;;;;;;;;;19.99;86.24;100239.20;1650495;86;20739;-72
2022/08/28 06:23:14;;;;;;;;;;;;;;;20.05;86.22;100238.28;1646761;86;21450;-72
2022/08/28 06:25:44;;;;;;;;;;;;;;;20.09;86.18;100240.78;1651683;86;20710;-71
2022/08/28 06:28:09;;;;;;;;;;;;;;;20.13;86.17;100243.32;1647522;86;20168;-71
2022/08/28 06:30:36;;;;;;;;;;;;;;;20.19;86.14;100238.34;1648579;86;20160;-72
2022/08/28 06:33:03;;;;;;;;;;;;;;;20.23;86.11;100234.06;1668171;86;20173;-72
2022/08/28 06:35:30;;;;;;;;;;;;;;;20.23;86.06;100236.78;1657200;86;21659;-71
2022/08/28 06:37:56;;;;;;;;;;;;;;;20.23;86.03;100231.36;1641459;86;20585;-71
2022/08/28 06:40:22;;;;;;;;;;;;;;;20.19;85.94;100231.56;1641705;86;20175;-71
2022/08/28 06:42:48;;;;;;;;;;;;;;;20.17;85.90;100235.55;1642326;86;20285;-71
2022/08/28 06:45:14;;;;;;;;;;;;;;;20.14;85.85;100234.14;1640624;86;20245;-72
2022/08/28 06:47:40;;;;;;;;;;;;;;;20.12;85.83;100238.16;1620063;86;21561;-71
2022/08/28 06:50:06;;;;;;;;;;;;;;;20.10;85.80;100241.09;1636663;86;20200;-72
2022/08/28 06:52:32;;;;;;;;;;;;;;;20.07;85.75;100244.27;1660148;86;20413;-72
2022/08/28 06:54:58;;;;;;;;;;;;;;;20.04;85.70;100244.75;1652650;86;20174;-72
2022/08/28 06:57:25;;;;;;;;;;;;;;;20.04;85.72;100247.98;1651020;86;20267;-72
2022/08/28 06:59:55;;;;;;;;;;;;;;;20.04;85.70;100244.75;1644314;86;21536;-72
2022/08/28 07:02:21;;;;;;;;;;;;;;;20.06;85.69;100246.67;1644021;86;20429;-72
2022/08/28 07:04:52;;;;;;;;;;;;;;;20.06;85.68;100243.97;1646612;86;20194;-72
2022/08/28 07:07:19;;;;;;;;;;;;;;;20.05;85.62;100244.22;1650218;86;21118;-72
2022/08/28 07:09:45;;;;;;;;;;;;;;;20.06;85.62;100245.32;1635766;86;20598;-72
2022/08/28 07:12:14;;;;;;;;;;;;;;;20.05;85.62;100243.70;1630868;86;21530;-72
2022/08/28 07:14:40;;;;;;;;;;;;;;;20.04;85.62;100248.80;1627039;86;20164;-71
2022/08/28 07:17:06;;;;;;;;;;;;;;;20.02;85.60;100246.84;1632278;86;20415;-72
2022/08/28 07:19:32;;;;;;;;;;;;;;;20.00;85.62;100247.63;1632744;86;20233;-72
2022/08/28 07:21:58;;;;;;;;;;;;;;;20.00;85.65;100253.56;1626340;86;20182;-72
2022/08/28 07:24:24;;;;;;;;;;;;;;;20.01;85.71;100256.05;1629357;86;22289;-72
2022/08/28 07:26:51;;;;;;;;;;;;;;;20.05;85.74;100253.17;1631591;86;20566;-72
2022/08/28 07:29:17;;;;;;;;;;;;;;;20.10;85.81;100259.21;1635079;86;20440;-73
2022/08/28 07:31:45;;;;;;;;;;;;;;;20.15;85.85;100259.34;1631521;86;20475;-78
2022/08/28 07:34:12;;;;;;;;;;;;;;;20.19;85.89;100267.30;1631851;86;20132;-76
2022/08/28 07:36:38;;;;;;;;;;;;;;;20.21;85.92;100269.23;1624891;86;21596;-76
2022/08/28 07:39:04;;;;;;;;;;;;;;;20.27;85.92;100273.20;1627920;86;20233;-76
2022/08/28 07:41:31;;;;;;;;;;;;;;;20.31;85.92;100269.48;1624613;86;20191;-76
2022/08/28 07:46:42;;;;;;;;;;;;;;;20.30;85.95;100267.30;1633376;86;20349;-76
2022/08/28 07:49:09;;;;;;;;;;;;;;;20.33;85.99;100266.86;1631964;86;22643;-76
2022/08/28 07:51:35;;;;;;;;;;;;;;;20.38;86.01;100273.73;1629192;86;20630;-76
2022/08/28 07:54:02;;;;;;;;;;;;;;;20.40;86.03;100271.63;1628644;86;20226;-76
2022/08/28 07:56:28;;;;;;;;;;;;;;;20.49;86.11;100271.23;1624795;86;20498;-76
2022/08/28 07:58:58;;;;;;;;;;;;;;;20.58;86.09;100277.95;1628598;86;20206;-77
2022/08/28 08:01:25;;;;;;;;;;;;;;;20.61;86.10;100272.89;1625551;86;21705;-77
2022/08/28 08:03:51;;;;;;;;;;;;;;;20.57;86.05;100277.13;1631371;86;20559;-76
2022/08/28 08:06:17;;;;;;;;;;;;;;;20.56;86.08;100274.64;1624435;86;21125;-76
2022/08/28 08:08:45;;;;;;;;;;;;;;;20.56;86.03;100274.64;1630226;86;20584;-75
2022/08/28 08:11:13;;;;;;;;;;;;;;;20.56;86.03;100278.70;1629908;86;20315;-75
2022/08/28 08:13:39;;;;;;;;;;;;;;;20.53;86.05;100281.37;1626219;86;22610;-75
2022/08/28 08:16:10;;;;;;;;;;;;;;;20.59;86.05;100285.00;1628266;86;20705;-75
2022/08/28 08:18:39;;;;;;;;;;;;;;;20.63;86.07;100276.69;1632881;86;20222;-75
2022/08/28 08:21:05;;;;;;;;;;;;;;;20.66;86.06;100283.81;1634875;86;20437;-75
2022/08/28 08:23:33;;;;;;;;;;;;;;;20.70;86.08;100287.70;1625910;86;20491;-74
2022/08/28 08:26:01;;;;;;;;;;;;;;;20.78;86.06;100289.22;1630124;86;22255;-75
2022/08/28 08:28:27;;;;;;;;;;;;;;;20.79;86.01;100293.59;1630673;86;20129;-75
2022/08/28 08:31:26;;;;;;;;;;;;;;;20.74;86.01;100291.59;1634358;86;20208;-75
2022/08/28 08:33:53;;;;;;;;;;;;;;;20.72;86.00;100301.83;1626186;86;20479;-76
2022/08/28 08:36:21;;;;;;;;;;;;;;;20.71;86.01;100293.42;1632868;86;20183;-75
2022/08/28 08:38:47;;;;;;;;;;;;;;;20.71;86.01;100298.02;1632718;86;22297;-75
2022/08/28 08:41:29;;;;;;;;;;;;;;;20.67;85.96;100294.13;1624767;86;20287;-76
2022/08/28 08:44:04;;;;;;;;;;;;;;;20.57;85.93;100300.69;1632031;86;20206;-76
2022/08/28 08:46:50;;;;;;;;;;;;;;;20.47;85.97;100306.71;1629574;86;20242;-75
2022/08/28 08:49:19;;;;;;;;;;;;;;;20.44;86.02;100307.98;1625237;86;20175;-76
2022/08/28 08:51:47;;;;;;;;;;;;;;;20.38;86.01;100300.81;1632180;86;22418;-75
2022/08/28 08:54:15;;;;;;;;;;;;;;;20.38;86.07;100308.94;1636222;86;20343;-75
2022/08/28 08:56:41;;;;;;;;;;;;;;;20.37;86.06;100309.20;1631455;86;20206;-75
2022/08/28 08:59:11;;;;;;;;;;;;;;;20.36;86.06;100316.49;1631815;86;20184;-75
2022/08/28 09:02:04;;;;;;;;;;;;;;;20.36;86.08;100319.20;1631183;86;20222;-75
2022/08/28 09:04:38;;;;;;;;;;;;;;;20.31;86.04;100318.24;1629475;86;21684;-75
2022/08/28 09:07:08;;;;;;;;;;;;;;;20.25;86.11;100316.45;1634296;86;20223;-76
2022/08/28 09:09:43;;;;;;;;;;;;;;;20.16;86.12;100318.66;1634315;86;20525;-75
2022/08/28 09:12:14;;;;;;;;;;;;;;;20.09;86.18;100321.22;1636817;85;20573;-75
2022/08/28 09:15:04;;;;;;;;;;;;;;;20.07;86.26;100329.56;1634610;85;20187;-75
2022/08/28 09:17:33;;;;;;;;;;;;;;;20.03;86.29;100329.73;1634179;85;21550;-77
2022/08/28 09:19:59;;;;;;;;;;;;;;;19.98;86.38;100333.68;1632417;85;20902;-76
2022/08/28 09:22:25;;;;;;;;;;;;;;;19.93;86.44;100334.89;1634534;85;20111;-77
2022/08/28 09:24:51;;;;;;;;;;;;;;;19.90;86.53;100335.36;1631500;85;20261;-77
2022/08/28 09:27:23;;;;;;;;;;;;;;;19.85;86.61;100340.62;1635552;85;20187;-77
2022/08/28 09:30:03;;;;;;;;;;;;;;;19.83;86.70;100342.23;1634538;85;22422;-77
2022/08/28 09:32:43;;;;;;;;;;;;;;;19.83;86.79;100338.17;1634307;85;20213;-78
2022/08/28 09:35:19;;;;;;;;;;;;;;;19.84;86.85;100344.41;1638631;85;20203;-77
2022/08/28 09:37:45;;;;;;;;;;;;;;;19.85;86.95;100348.75;1628696;85;20644;-77
2022/08/28 09:40:22;;;;;;;;;;;;;;;19.84;87.02;100344.41;1629918;86;20305;-77
2022/08/28 09:45:53;;;;;;;;;;;;;;;19.83;87.21;100343.59;1633080;85;20156;-77
2022/08/28 09:48:32;;;;;;;;;;;;;;;19.85;87.30;100342.81;1632336;85;20189;-78
2022/08/28 09:51:02;;;;;;;;;;;;;;;19.85;87.33;100341.98;1631017;85;21268;-78
2022/08/28 09:53:29;;;;;;;;;;;;;;;19.92;87.40;100350.83;1635637;86;20188;-78
2022/08/28 09:56:05;;;;;;;;;;;;;;;19.95;87.40;100343.59;1633826;85;22713;-78
2022/08/28 09:58:52;;;;;;;;;;;;;;;19.93;87.47;100345.20;1637542;85;20207;-78
2022/08/28 10:01:27;;;;;;;;;;;;;;;19.97;87.53;100345.55;1626656;85;20108;-78
2022/08/28 10:04:15;;;;;;;;;;;;;;;20.00;87.60;100349.15;1631449;85;20491;-78
2022/08/28 10:06:43;;;;;;;;;;;;;;;20.01;87.63;100348.63;1634630;86;20198;-78
2022/08/28 10:09:28;;;;;;;;;;;;;;;19.99;87.65;100350.72;1636475;85;21698;-78
2022/08/28 10:11:57;;;;;;;;;;;;;;;20.03;87.71;100350.55;1638899;85;20641;-77
2022/08/28 10:14:45;;;;;;;;;;;;;;;20.08;87.80;100354.23;1631804;86;20456;-78
2022/08/28 10:17:18;;;;;;;;;;;;;;;20.13;87.82;100351.63;1631738;86;20344;-78
2022/08/28 10:19:50;;;;;;;;;;;;;;;20.20;87.90;100359.13;1630914;86;20199;-75
2022/08/28 10:22:23;;;;;;;;;;;;;;;20.26;87.90;100359.56;1629839;86;21055;-75
2022/08/28 10:25:23;;;;;;;;;;;;;;;20.35;87.90;100353.28;1629611;86;21612;-75
2022/08/28 10:28:01;;;;;;;;;;;;;;;20.39;87.93;100356.66;1629454;86;20166;-76
2022/08/28 10:30:27;;;;;;;;;;;;;;;20.44;87.90;100354.05;1630215;86;20394;-75
2022/08/28 10:33:12;;;;;;;;;;;;;;;20.49;87.93;100348.45;1626936;86;20250;-75
2022/08/28 10:35:50;;;;;;;;;;;;;;;20.56;87.98;100354.05;1634647;86;21386;-75
2022/08/28 10:38:38;;;;;;;;;;;;;;;20.57;87.95;100354.88;1631850;86;20268;-75
2022/08/28 10:41:11;;;;;;;;;;;;;;;20.57;87.97;100366.55;1615203;86;20204;-75
2022/08/28 10:43:43;;;;;;;;;;;;;;;20.57;87.98;100365.20;1628833;86;20258;-75
2022/08/28 10:46:19;;;;;;;;;;;;;;;20.56;88.00;100357.29;1626708;86;20438;-75
2022/08/28 10:48:49;;;;;;;;;;;;;;;20.55;87.99;100367.86;1629182;86;20791;-75
2022/08/28 10:51:19;;;;;;;;;;;;;;;20.49;87.96;100369.60;1631960;86;20131;-74
2022/08/28 10:53:53;;;;;;;;;;;;;;;20.43;87.97;100365.96;1628787;86;20173;-75
2022/08/28 10:56:24;;;;;;;;;;;;;;;20.37;87.97;100370.94;1621916;86;20954;-74
2022/08/28 10:58:53;;;;;;;;;;;;;;;20.30;87.95;100366.73;1607445;86;20443;-75
2022/08/28 11:01:30;;;;;;;;;;;;;;;20.23;87.99;100370.84;1627605;86;21684;-76
2022/08/28 11:03:58;;;;;;;;;;;;;;;20.14;87.96;100362.77;1633201;86;20727;-74
2022/08/28 11:06:40;;;;;;;;;;;;;;;20.07;87.96;100369.34;1635980;86;20159;-75
2022/08/28 11:09:25;;;;;;;;;;;;;;;20.04;87.99;100368.46;1629192;86;21031;-74
2022/08/28 11:11:56;;;;;;;;;;;;;;;20.01;88.02;100375.17;1635534;86;20171;-75
2022/08/28 11:14:25;;;;;;;;;;;;;;;19.97;88.03;100373.16;1632127;86;21610;-75
2022/08/28 11:16:57;;;;;;;;;;;;;;;19.89;88.04;100382.42;1630632;86;20970;-76
2022/08/28 11:19:48;;;;;;;;;;;;;;;19.86;88.09;100385.59;1633430;86;20224;-75
2022/08/28 11:22:29;;;;;;;;;;;;;;;19.80;88.08;100389.23;1634819;86;20229;-75
2022/08/28 11:25:14;;;;;;;;;;;;;;;19.72;88.12;100392.25;1633833;86;20183;-76
2022/08/28 11:27:40;;;;;;;;;;;;;;;19.66;88.18;100390.47;1629022;86;22360;-75
2022/08/28 11:30:15;;;;;;;;;;;;;;;19.60;88.21;100392.20;1611063;86;20270;-75
2022/08/28 11:32:54;;;;;;;;;;;;;;;19.59;88.27;100389.73;1635530;86;20245;-74
2022/08/28 11:35:30;;;;;;;;;;;;;;;19.59;88.33;100389.73;1630115;86;20623;-73
2022/08/28 11:37:56;;;;;;;;;;;;;;;19.59;88.39;100382.45;1623595;86;20183;-74
2022/08/28 11:40:37;;;;;;;;;;;;;;;19.62;88.43;100393.34;1612916;86;21510;-75
2022/08/28 11:43:19;;;;;;;;;;;;;;;19.62;88.45;100391.98;1629765;86;20198;-75
2022/08/28 11:45:48;;;;;;;;;;;;;;;19.66;88.52;100395.89;1629729;86;20606;-74
2022/08/28 11:48:38;;;;;;;;;;;;;;;19.68;88.57;100396.47;1627706;86;20223;-74
2022/08/28 11:51:30;;;;;;;;;;;;;;;19.72;88.60;100405.78;1630131;86;20218;-78
2022/08/28 11:54:21;;;;;;;;;;;;;;;19.71;88.64;100404.13;1625955;86;21590;-74
2022/08/28 11:56:59;;;;;;;;;;;;;;;19.71;88.65;100402.77;1632720;86;20486;-73
2022/08/28 11:59:32;;;;;;;;;;;;;;;19.67;88.71;100404.28;1633269;86;20161;-73
2022/08/28 12:02:18;;;;;;;;;;;;;;;19.68;88.79;100393.23;1630891;86;20465;-74
2022/08/28 12:04:44;;;;;;;;;;;;;;;19.70;88.84;100397.08;1639726;86;20167;-74
2022/08/28 12:07:17;;;;;;;;;;;;;;;19.73;88.90;100399.33;1642572;86;22154;-73
2022/08/28 12:09:44;;;;;;;;;;;;;;;19.75;88.93;100401.27;1640892;86;20156;-74
2022/08/28 12:12:26;;;;;;;;;;;;;;;19.78;89.00;100399.45;1639323;86;20188;-73
2022/08/28 12:14:58;;;;;;;;;;;;;;;19.79;89.05;100401.11;1617791;87;20299;-74
2022/08/28 12:17:27;;;;;;;;;;;;;;;19.82;89.08;100403.34;1632498;87;20176;-74
2022/08/28 12:20:09;;;;;;;;;;;;;;;19.83;89.10;100403.13;1614409;87;22337;-74
2022/08/28 12:22:48;;;;;;;;;;;;;;;19.84;89.12;100403.41;1619567;87;20175;-74
2022/08/28 12:25:18;;;;;;;;;;;;;;;19.87;89.17;100405.68;1653569;85;20480;-73
2022/08/28 12:27:44;;;;;;;;;;;;;;;19.94;89.24;100410.47;1661720;85;20930;-73
2022/08/28 12:30:13;;;;;;;;;;;;;;;19.96;89.27;100404.81;1668028;85;20236;-73
2022/08/28 12:32:52;;;;;;;;;;;;;;;20.00;89.27;100405.17;1658650;84;21792;-73
2022/08/28 12:35:22;;;;;;;;;;;;;;;20.03;89.33;100410.95;1648218;85;20448;-74
2022/08/28 12:37:56;;;;;;;;;;;;;;;20.05;89.34;100410.20;1621326;87;20240;-73
2022/08/28 12:40:28;;;;;;;;;;;;;;;20.08;89.38;100411.09;1596264;88;20983;-73
2022/08/28 12:42:57;;;;;;;;;;;;;;;20.07;89.42;100410.79;1657809;85;20185;-74
2022/08/28 12:45:41;;;;;;;;;;;;;;;20.07;89.48;100406.73;1622948;87;21688;-73
2022/08/28 12:48:14;;;;;;;;;;;;;;;20.10;89.52;100411.67;1609926;88;20160;-73
2022/08/28 12:50:40;;;;;;;;;;;;;;;20.13;89.58;100409.86;1655888;85;20480;-73
2022/08/28 12:53:11;;;;;;;;;;;;;;;20.13;89.59;100416.63;1658770;85;20392;-73
2022/08/28 12:55:37;;;;;;;;;;;;;;;20.10;89.66;100410.84;1656658;85;20188;-73